createdAt,value
2017-12-12T00:01:22.756Z,0.73
2017-12-12T00:03:52.059Z,1.30
2017-12-12T00:06:22.086Z,0.70
2017-12-12T00:08:51.480Z,0.83
2017-12-12T00:11:21.482Z,0.63
2017-12-12T00:13:50.867Z,0.73
2017-12-12T00:16:20.181Z,0.70
2017-12-12T00:18:49.445Z,0.70
2017-12-12T00:21:18.677Z,0.60
2017-12-12T00:23:47.923Z,0.70
2017-12-12T00:26:17.165Z,0.70
2017-12-12T00:28:46.407Z,0.70
2017-12-12T00:31:15.653Z,0.60
2017-12-12T00:33:44.881Z,1.20
2017-12-12T00:36:14.242Z,0.83
2017-12-12T00:38:43.495Z,0.80
2017-12-12T00:41:12.718Z,0.80
2017-12-12T00:43:41.993Z,0.70
2017-12-12T00:46:11.221Z,0.70
2017-12-12T00:48:41.302Z,0.90
2017-12-12T00:51:11.392Z,0.83
2017-12-12T00:53:40.625Z,0.80
2017-12-12T00:56:10.045Z,0.90
2017-12-12T00:58:39.328Z,0.90
2017-12-12T01:01:08.841Z,0.90
2017-12-12T01:03:38.871Z,0.63
2017-12-12T01:06:08.946Z,0.87
2017-12-12T01:08:38.193Z,0.60
2017-12-12T01:11:08.203Z,1.10
2017-12-12T01:13:37.598Z,0.53
2017-12-12T01:16:06.847Z,0.53
2017-12-12T01:18:36.202Z,0.80
2017-12-12T01:21:05.477Z,0.60
2017-12-12T01:23:34.720Z,0.77
2017-12-12T01:26:04.135Z,0.70
2017-12-12T01:28:33.453Z,0.70
2017-12-12T01:31:02.706Z,0.70
2017-12-12T01:33:31.935Z,0.70
2017-12-12T01:36:01.227Z,0.77
2017-12-12T01:38:31.971Z,0.97
2017-12-12T01:41:01.209Z,0.80
2017-12-12T01:43:32.090Z,1.07
2017-12-12T01:46:01.378Z,0.80
2017-12-12T01:48:30.689Z,0.70
2017-12-12T01:50:59.941Z,0.80
2017-12-12T01:53:29.197Z,1.00
2017-12-12T01:55:58.470Z,0.97
2017-12-12T01:58:27.698Z,0.70
2017-12-12T02:00:57.769Z,1.03
2017-12-12T02:03:27.106Z,1.00
2017-12-12T02:05:56.418Z,1.20
2017-12-12T02:08:25.642Z,1.17
2017-12-12T02:10:54.878Z,1.10
2017-12-12T02:13:24.342Z,0.90
2017-12-12T02:15:53.549Z,1.20
2017-12-12T02:18:22.789Z,1.20
2017-12-12T02:20:52.240Z,0.93
2017-12-12T02:23:22.264Z,1.30
2017-12-12T02:25:51.499Z,1.00
2017-12-12T02:28:20.733Z,0.80
2017-12-12T02:30:50.041Z,0.97
2017-12-12T02:33:19.288Z,1.23
2017-12-12T02:35:48.670Z,1.07
2017-12-12T02:38:18.683Z,1.00
2017-12-12T02:40:48.062Z,1.17
2017-12-12T02:43:17.329Z,1.20
2017-12-12T02:45:46.689Z,2.00
2017-12-12T02:48:16.181Z,0.60
2017-12-12T02:50:46.306Z,1.47
2017-12-12T02:53:16.320Z,1.30
2017-12-12T02:55:45.553Z,1.17
2017-12-12T02:58:14.806Z,1.47
2017-12-12T03:00:44.322Z,1.70
2017-12-12T03:03:13.617Z,1.30
2017-12-12T03:05:42.863Z,1.60
2017-12-12T03:08:12.146Z,1.43
2017-12-12T03:10:41.554Z,1.63
2017-12-12T03:13:10.828Z,1.87
2017-12-12T03:15:40.154Z,2.10
2017-12-12T03:18:09.391Z,2.43
2017-12-12T03:20:38.809Z,2.70
2017-12-12T03:23:08.074Z,3.00
2017-12-12T03:25:38.126Z,2.10
2017-12-12T03:28:07.609Z,2.73
2017-12-12T03:30:36.863Z,2.00
2017-12-12T03:33:06.110Z,2.43
2017-12-12T03:35:35.381Z,2.37
2017-12-12T03:38:05.402Z,2.00
2017-12-12T03:40:34.660Z,2.07
2017-12-12T03:43:03.891Z,2.00
2017-12-12T03:45:33.903Z,2.50
2017-12-12T03:48:03.137Z,1.93
2017-12-12T03:50:32.386Z,2.13
2017-12-12T03:53:01.614Z,1.60
2017-12-12T03:55:31.000Z,1.80
2017-12-12T03:58:01.043Z,2.30
2017-12-12T04:00:30.302Z,2.00
2017-12-12T04:02:59.561Z,1.63
2017-12-12T04:05:28.839Z,2.07
2017-12-12T04:07:58.850Z,2.07
2017-12-12T04:10:28.238Z,2.10
2017-12-12T04:12:57.501Z,1.77
2017-12-12T04:15:26.737Z,3.83
2017-12-12T04:17:55.985Z,2.23
2017-12-12T04:20:25.225Z,2.07
2017-12-12T04:22:54.562Z,1.80
2017-12-12T04:25:23.757Z,1.63
2017-12-12T04:27:53.018Z,2.27
2017-12-12T04:30:22.249Z,2.13
2017-12-12T04:32:51.650Z,1.63
2017-12-12T04:35:20.888Z,1.57
2017-12-12T04:37:50.156Z,1.90
2017-12-12T04:40:19.377Z,1.90
2017-12-12T04:42:49.088Z,2.40
2017-12-12T04:45:18.277Z,2.20
2017-12-12T04:47:48.294Z,2.20
2017-12-12T04:50:17.669Z,2.10
2017-12-12T04:52:46.904Z,1.63
2017-12-12T04:55:16.282Z,1.80
2017-12-12T04:57:45.534Z,2.30
2017-12-12T05:00:14.762Z,1.70
2017-12-12T05:02:44.182Z,2.00
2017-12-12T05:05:13.492Z,1.83
2017-12-12T05:07:43.589Z,2.23
2017-12-12T05:10:12.844Z,1.73
2017-12-12T05:12:42.096Z,1.80
2017-12-12T05:15:11.369Z,1.70
2017-12-12T05:17:40.814Z,2.07
2017-12-12T05:20:10.088Z,1.87
2017-12-12T05:22:39.410Z,1.73
2017-12-12T05:25:08.797Z,1.77
2017-12-12T05:27:38.051Z,1.73
2017-12-12T05:30:07.339Z,1.63
2017-12-12T05:32:38.071Z,1.73
2017-12-12T05:35:08.309Z,1.97
2017-12-12T05:37:37.589Z,1.60
2017-12-12T05:40:07.624Z,1.80
2017-12-12T05:42:36.992Z,2.07
2017-12-12T05:45:06.246Z,2.00
2017-12-12T05:47:35.506Z,2.40
2017-12-12T05:50:05.519Z,1.90
2017-12-12T05:52:35.523Z,1.50
2017-12-12T05:55:04.840Z,2.00
2017-12-12T05:57:34.126Z,2.13
2017-12-12T06:00:03.369Z,2.10
2017-12-12T06:02:32.643Z,2.03
2017-12-12T06:05:02.070Z,1.93
2017-12-12T06:07:31.421Z,2.10
2017-12-12T06:10:00.692Z,1.83
2017-12-12T06:12:29.910Z,1.90
2017-12-12T06:14:59.248Z,1.80
2017-12-12T06:17:29.129Z,1.57
2017-12-12T06:19:58.369Z,1.90
2017-12-12T06:22:27.621Z,1.43
2017-12-12T06:24:56.863Z,1.57
2017-12-12T06:27:26.161Z,1.90
2017-12-12T06:29:55.384Z,2.00
2017-12-12T06:32:24.610Z,1.90
2017-12-12T06:34:53.874Z,1.50
2017-12-12T06:37:23.871Z,2.20
2017-12-12T06:39:53.289Z,1.70
2017-12-12T06:42:22.521Z,2.33
2017-12-12T06:44:51.800Z,1.83
2017-12-12T06:49:56.806Z,1.63
2017-12-12T06:52:26.176Z,1.70
2017-12-12T06:54:56.261Z,1.97
2017-12-12T06:57:25.574Z,1.83
2017-12-12T06:59:54.826Z,1.60
2017-12-12T07:02:24.161Z,1.80
2017-12-12T07:04:53.471Z,2.13
2017-12-12T07:07:22.752Z,1.60
2017-12-12T07:09:52.229Z,1.60
2017-12-12T07:12:21.558Z,2.13
2017-12-12T07:14:50.798Z,1.57
2017-12-12T07:17:20.174Z,2.07
2017-12-12T07:19:49.434Z,2.10
2017-12-12T07:22:18.684Z,1.90
2017-12-12T07:24:47.930Z,2.20
2017-12-12T07:27:17.162Z,2.27
2017-12-12T07:29:46.430Z,2.53
2017-12-12T07:32:15.690Z,2.00
2017-12-12T07:34:45.707Z,2.47
2017-12-12T07:37:14.937Z,1.60
2017-12-12T07:39:44.193Z,2.10
2017-12-12T07:42:13.433Z,2.27
2017-12-12T07:44:43.462Z,2.07
2017-12-12T07:47:12.722Z,2.53
2017-12-12T07:49:42.725Z,2.73
2017-12-12T07:52:11.970Z,2.30
2017-12-12T07:54:41.327Z,2.70
2017-12-12T07:57:10.586Z,2.27
2017-12-12T07:59:40.041Z,2.00
2017-12-12T08:02:09.294Z,2.83
2017-12-12T08:04:38.523Z,2.23
2017-12-12T08:07:07.766Z,1.73
2017-12-12T08:09:37.150Z,2.60
2017-12-12T08:12:06.457Z,3.00
2017-12-12T08:14:36.453Z,2.43
2017-12-12T08:17:05.878Z,2.30
2017-12-12T08:19:35.877Z,2.67
2017-12-12T08:22:05.133Z,2.10
2017-12-12T08:24:35.264Z,2.70
2017-12-12T08:27:04.526Z,2.80
2017-12-12T08:29:34.540Z,2.27
2017-12-12T08:32:03.939Z,2.23
2017-12-12T08:34:33.965Z,2.17
2017-12-12T08:37:03.197Z,2.03
2017-12-12T08:39:32.653Z,2.07
2017-12-12T08:42:02.637Z,2.57
2017-12-12T08:44:31.896Z,2.53
2017-12-12T08:47:01.891Z,2.10
2017-12-12T08:49:31.155Z,2.23
2017-12-12T08:52:00.429Z,2.07
2017-12-12T08:54:29.687Z,2.27
2017-12-12T08:56:58.995Z,1.90
2017-12-12T08:59:29.028Z,2.30
2017-12-12T09:01:58.286Z,2.17
2017-12-12T09:04:27.726Z,2.07
2017-12-12T09:06:57.751Z,1.77
2017-12-12T09:09:27.023Z,2.90
2017-12-12T09:11:56.302Z,2.07
2017-12-12T09:14:25.563Z,1.70
2017-12-12T09:16:54.822Z,1.70
2017-12-12T09:19:24.145Z,2.20
2017-12-12T09:21:54.154Z,1.50
2017-12-12T09:24:24.177Z,2.03
2017-12-12T09:26:54.297Z,1.60
2017-12-12T09:29:23.815Z,1.93
2017-12-12T09:31:53.821Z,1.50
2017-12-12T09:34:23.090Z,1.40
2017-12-12T09:36:52.336Z,1.50
2017-12-12T09:39:22.462Z,2.30
2017-12-12T09:41:52.477Z,1.47
2017-12-12T09:44:22.041Z,1.57
2017-12-12T09:46:51.313Z,1.43
2017-12-12T09:49:20.555Z,2.23
2017-12-12T09:51:49.801Z,2.20
2017-12-12T09:54:19.095Z,1.63
2017-12-12T09:56:49.893Z,1.70
2017-12-12T09:59:19.137Z,1.60
2017-12-12T10:01:48.425Z,1.43
2017-12-12T10:04:18.519Z,2.67
2017-12-12T10:06:47.773Z,1.30
2017-12-12T10:09:17.031Z,2.13
2017-12-12T10:11:46.265Z,1.50
2017-12-12T10:14:15.538Z,2.10
2017-12-12T10:16:44.790Z,2.93
2017-12-12T10:19:14.046Z,1.50
2017-12-12T10:21:43.445Z,2.40
2017-12-12T10:24:13.542Z,2.10
2017-12-12T10:26:42.774Z,1.50
2017-12-12T10:29:12.895Z,1.30
2017-12-12T10:31:42.905Z,2.40
2017-12-12T10:34:12.150Z,1.60
2017-12-12T10:36:41.529Z,1.30
2017-12-12T10:39:10.762Z,1.20
2017-12-12T10:41:40.240Z,1.70
2017-12-12T10:44:10.244Z,1.27
2017-12-12T10:46:40.261Z,1.33
2017-12-12T10:49:09.503Z,1.57
2017-12-12T10:51:38.852Z,1.50
2017-12-12T10:54:08.153Z,1.20
2017-12-12T10:56:37.414Z,1.20
2017-12-12T10:59:06.652Z,1.47
2017-12-12T11:01:37.392Z,1.13
2017-12-12T11:04:06.669Z,1.20
2017-12-12T11:06:35.899Z,1.30
2017-12-12T11:09:05.159Z,1.53
2017-12-12T11:11:34.549Z,1.87
2017-12-12T11:14:04.012Z,1.57
2017-12-12T11:16:33.236Z,1.93
2017-12-12T11:19:02.476Z,2.00
2017-12-12T11:21:31.709Z,1.33
2017-12-12T11:24:00.978Z,1.13
2017-12-12T11:26:30.960Z,2.03
2017-12-12T11:29:00.214Z,1.60
2017-12-12T11:31:29.530Z,2.03
2017-12-12T11:33:58.923Z,2.17
2017-12-12T11:36:28.170Z,2.00
2017-12-12T11:38:57.509Z,2.10
2017-12-12T11:41:26.766Z,2.00
2017-12-12T11:43:56.023Z,2.13
2017-12-12T11:46:25.293Z,1.97
2017-12-12T11:48:54.619Z,1.50
2017-12-12T11:51:23.867Z,1.73
2017-12-12T11:53:53.099Z,1.37
2017-12-12T11:56:22.332Z,1.60
2017-12-12T11:58:51.661Z,2.40
2017-12-12T12:01:21.724Z,1.67
2017-12-12T12:03:51.013Z,2.10
2017-12-12T12:06:20.242Z,1.50
2017-12-12T12:08:49.486Z,1.90
2017-12-12T12:11:18.716Z,1.43
2017-12-12T12:13:47.969Z,1.67
2017-12-12T12:16:17.211Z,2.07
2017-12-12T12:18:46.449Z,1.77
2017-12-12T12:21:15.702Z,2.20
2017-12-12T12:23:44.933Z,3.03
2017-12-12T12:26:14.203Z,3.23
2017-12-12T12:28:43.435Z,3.40
2017-12-12T12:31:12.755Z,2.37
2017-12-12T12:33:41.986Z,3.00
2017-12-12T12:36:11.239Z,1.70
2017-12-12T12:38:40.487Z,2.00
2017-12-12T12:41:10.517Z,1.33
2017-12-12T12:43:39.781Z,2.10
2017-12-12T12:46:09.024Z,2.30
2017-12-12T12:48:38.261Z,4.00
2017-12-12T12:51:07.548Z,2.40
2017-12-12T12:53:36.745Z,1.47
2017-12-12T12:56:05.997Z,2.97
2017-12-12T12:58:36.101Z,1.67
2017-12-12T13:01:05.364Z,1.43
2017-12-12T13:03:34.585Z,1.60
2017-12-12T13:06:03.931Z,1.37
2017-12-12T13:08:33.906Z,1.67
2017-12-12T13:11:03.138Z,1.57
2017-12-12T13:13:32.393Z,1.33
2017-12-12T13:16:01.645Z,2.20
2017-12-12T13:18:30.958Z,1.37
2017-12-12T13:21:00.186Z,1.10
2017-12-12T13:23:29.525Z,1.20
2017-12-12T13:25:58.781Z,1.50
2017-12-12T13:28:28.033Z,1.63
2017-12-12T13:30:57.273Z,1.93
2017-12-12T13:33:26.517Z,1.80
2017-12-12T13:35:55.842Z,1.77
2017-12-12T13:38:25.945Z,2.10
2017-12-12T13:40:55.181Z,1.60
2017-12-12T13:43:24.562Z,1.77
2017-12-12T13:45:54.586Z,2.17
2017-12-12T13:48:23.850Z,1.30
2017-12-12T13:50:53.124Z,1.70
2017-12-12T13:53:22.349Z,1.60
2017-12-12T13:55:51.601Z,1.67
2017-12-12T13:58:20.953Z,1.50
2017-12-12T14:00:50.229Z,2.50
2017-12-12T14:03:19.466Z,2.00
2017-12-12T14:05:48.717Z,1.50
2017-12-12T14:08:17.975Z,2.40
2017-12-12T14:10:47.217Z,1.70
2017-12-12T14:13:16.469Z,1.70
2017-12-12T14:15:45.722Z,2.40
2017-12-12T14:18:14.981Z,1.90
2017-12-12T14:20:44.222Z,1.57
2017-12-12T14:23:13.447Z,1.50
2017-12-12T14:25:42.870Z,1.30
2017-12-12T14:28:12.153Z,2.20
2017-12-12T14:30:41.362Z,1.90
2017-12-12T14:33:10.593Z,1.80
2017-12-12T14:35:40.589Z,1.80
2017-12-12T14:38:09.855Z,1.47
2017-12-12T14:40:39.083Z,1.63
2017-12-12T14:43:08.410Z,1.97
2017-12-12T14:45:38.445Z,1.30
2017-12-12T14:48:07.707Z,1.57
2017-12-12T14:50:36.940Z,1.50
2017-12-12T14:53:06.999Z,1.50
2017-12-12T14:55:36.352Z,2.40
2017-12-12T14:58:05.767Z,1.53
2017-12-12T15:00:35.151Z,1.53
2017-12-12T15:03:05.146Z,1.63
2017-12-12T15:05:34.389Z,1.73
2017-12-12T15:08:03.650Z,1.30
2017-12-12T15:10:33.378Z,1.50
2017-12-12T15:13:02.666Z,2.00
2017-12-12T15:15:31.976Z,1.57
2017-12-12T15:18:01.216Z,2.17
2017-12-12T15:20:30.463Z,1.93
2017-12-12T15:22:59.825Z,2.23
2017-12-12T15:25:29.206Z,1.77
2017-12-12T15:27:59.193Z,1.70
2017-12-12T15:30:28.418Z,2.57
2017-12-12T15:32:58.553Z,2.00
2017-12-12T15:35:28.658Z,1.90
2017-12-12T15:37:58.675Z,1.50
2017-12-12T15:40:27.912Z,2.00
2017-12-12T15:42:57.189Z,2.40
2017-12-12T15:45:27.285Z,2.23
2017-12-12T15:47:56.635Z,3.60
2017-12-12T15:50:25.910Z,5.17
2017-12-12T15:52:55.186Z,2.70
2017-12-12T15:55:25.185Z,2.77
2017-12-12T15:57:54.434Z,2.80
2017-12-12T16:00:23.702Z,3.10
2017-12-12T16:02:53.745Z,2.80
2017-12-12T16:05:23.145Z,2.90
2017-12-12T16:07:52.354Z,2.90
2017-12-12T16:10:21.737Z,2.53
2017-12-12T16:12:50.990Z,7.03
2017-12-12T16:15:20.533Z,6.10
2017-12-12T16:17:50.560Z,1.93
2017-12-12T16:20:19.821Z,2.70
2017-12-12T16:22:49.072Z,2.60
2017-12-12T16:25:19.173Z,2.30
2017-12-12T16:27:48.422Z,2.33
2017-12-12T16:30:17.778Z,2.53
2017-12-12T16:32:47.033Z,3.00
2017-12-12T16:35:17.028Z,2.73
2017-12-12T16:37:46.305Z,2.27
2017-12-12T16:40:16.294Z,2.80
2017-12-12T16:42:45.557Z,2.57
2017-12-12T16:45:14.789Z,2.30
2017-12-12T16:47:44.035Z,3.50
2017-12-12T16:50:13.306Z,2.30
2017-12-12T16:52:42.547Z,2.17
2017-12-12T16:55:11.785Z,2.57
2017-12-12T16:57:41.116Z,2.30
2017-12-12T17:00:10.346Z,1.87
2017-12-12T17:02:39.572Z,1.87
2017-12-12T17:05:08.822Z,2.20
2017-12-12T17:07:38.861Z,2.27
2017-12-12T17:10:08.259Z,2.40
2017-12-12T17:12:37.705Z,2.20
2017-12-12T17:15:07.629Z,1.70
2017-12-12T17:17:36.879Z,2.83
2017-12-12T17:20:06.118Z,2.07
2017-12-12T17:22:35.374Z,1.80
2017-12-12T17:25:04.763Z,1.63
2017-12-12T17:27:34.166Z,2.03
2017-12-12T17:30:04.170Z,2.40
2017-12-12T17:32:33.713Z,1.90
2017-12-12T17:35:04.420Z,2.53
2017-12-12T17:37:33.770Z,2.43
2017-12-12T17:40:03.131Z,1.80
2017-12-12T17:42:32.382Z,1.80
2017-12-12T17:45:01.727Z,2.00
2017-12-12T17:47:31.010Z,2.60
2017-12-12T17:50:00.363Z,2.03
2017-12-12T17:52:29.642Z,2.23
2017-12-12T17:54:59.651Z,2.37
2017-12-12T17:57:28.915Z,2.67
2017-12-12T17:59:58.166Z,2.60
2017-12-12T18:02:28.266Z,2.30
2017-12-12T18:04:57.573Z,2.43
2017-12-12T18:07:26.769Z,2.03
2017-12-12T18:09:56.030Z,2.47
2017-12-12T18:12:25.262Z,1.80
2017-12-12T18:14:54.501Z,2.40
2017-12-12T18:17:24.476Z,2.43
2017-12-12T18:19:53.713Z,2.20
2017-12-12T18:22:23.290Z,2.50
2017-12-12T18:24:52.582Z,2.43
2017-12-12T18:27:21.867Z,3.07
2017-12-12T18:29:51.207Z,4.13
2017-12-12T18:32:20.546Z,4.17
2017-12-12T18:34:49.809Z,3.60
2017-12-12T18:37:19.034Z,3.70
2017-12-12T18:39:48.334Z,3.40
2017-12-12T18:42:17.634Z,3.40
2017-12-12T18:44:46.869Z,2.40
2017-12-12T18:47:17.754Z,2.37
2017-12-12T18:49:47.814Z,2.40
2017-12-12T18:52:17.086Z,2.70
2017-12-12T18:54:46.469Z,2.50
2017-12-12T18:57:15.722Z,2.40
2017-12-12T18:59:45.033Z,2.23
2017-12-12T19:02:14.399Z,2.00
2017-12-12T19:04:44.703Z,2.23
2017-12-12T19:07:13.971Z,1.77
2017-12-12T19:09:43.215Z,1.63
2017-12-12T19:12:13.246Z,2.17
2017-12-12T19:14:42.492Z,1.97
2017-12-12T19:17:11.763Z,2.30
2017-12-12T19:19:41.029Z,2.03
2017-12-12T19:22:10.277Z,1.70
2017-12-12T19:24:39.576Z,1.67
2017-12-12T19:27:08.816Z,2.20
2017-12-12T19:29:38.246Z,2.17
2017-12-12T19:32:08.242Z,1.80
2017-12-12T19:34:37.533Z,1.73
2017-12-12T19:37:06.762Z,2.80
2017-12-12T19:39:36.776Z,1.53
2017-12-12T19:42:06.085Z,2.00
2017-12-12T19:44:35.325Z,2.17
2017-12-12T19:47:04.561Z,2.50
2017-12-12T19:49:34.074Z,2.30
2017-12-12T19:52:04.106Z,2.40
2017-12-12T19:54:33.494Z,2.67
2017-12-12T19:57:02.726Z,2.53
2017-12-12T19:59:32.126Z,2.27
2017-12-12T20:02:01.367Z,2.30
2017-12-12T20:04:30.880Z,2.47
2017-12-12T20:07:00.147Z,2.27
2017-12-12T20:09:29.513Z,2.47
2017-12-12T20:11:58.808Z,2.53
2017-12-12T20:14:28.092Z,2.10
2017-12-12T20:16:57.332Z,2.40
2017-12-12T20:19:26.596Z,2.53
2017-12-12T20:21:56.030Z,2.23
2017-12-12T20:24:25.512Z,2.43
2017-12-12T20:26:54.838Z,2.33
2017-12-12T20:29:24.850Z,2.73
2017-12-12T20:31:54.251Z,2.80
2017-12-12T20:34:23.470Z,2.40
2017-12-12T20:36:52.702Z,1.70
2017-12-12T20:39:21.934Z,2.60
2017-12-12T20:41:51.358Z,2.40
2017-12-12T20:44:20.582Z,1.87
2017-12-12T20:46:49.822Z,2.50
2017-12-12T20:49:19.083Z,2.70
2017-12-12T20:51:48.334Z,2.60
2017-12-12T20:54:17.778Z,2.80
2017-12-12T20:56:47.774Z,2.43
2017-12-12T20:59:17.034Z,2.53
2017-12-12T21:01:46.315Z,2.30
2017-12-12T21:04:15.734Z,1.97
2017-12-12T21:06:45.002Z,2.27
2017-12-12T21:09:14.254Z,2.43
2017-12-12T21:11:43.502Z,2.40
2017-12-12T21:14:13.773Z,2.87
2017-12-12T21:16:43.049Z,2.13
2017-12-12T21:19:12.302Z,1.63
2017-12-12T21:21:43.156Z,2.67
2017-12-12T21:24:13.239Z,2.50
2017-12-12T21:26:42.618Z,2.47
2017-12-12T21:29:11.918Z,2.63
2017-12-12T21:31:41.171Z,2.37
2017-12-12T21:34:11.320Z,2.57
2017-12-12T21:36:41.345Z,2.63
2017-12-12T21:39:10.723Z,1.90
2017-12-12T21:41:40.844Z,2.20
2017-12-12T21:44:10.851Z,2.30
2017-12-12T21:46:40.264Z,2.33
2017-12-12T21:49:10.253Z,2.37
2017-12-12T21:51:39.512Z,2.90
2017-12-12T21:54:08.763Z,2.57
2017-12-12T21:56:38.003Z,2.10
2017-12-12T21:59:07.282Z,2.40
2017-12-12T22:01:36.525Z,2.43
2017-12-12T22:04:05.788Z,2.80
2017-12-12T22:06:35.786Z,2.87
2017-12-12T22:09:05.193Z,3.13
2017-12-12T22:11:34.445Z,2.67
2017-12-12T22:14:03.719Z,3.07
2017-12-12T22:16:32.974Z,3.37
2017-12-12T22:19:02.243Z,3.33
2017-12-12T22:21:31.498Z,3.20
2017-12-12T22:24:00.897Z,3.70
2017-12-12T22:26:30.143Z,3.20
2017-12-12T22:28:59.406Z,2.87
2017-12-12T22:31:28.830Z,2.70
2017-12-12T22:33:59.569Z,3.43
2017-12-12T22:36:28.825Z,3.57
2017-12-12T22:38:58.238Z,3.20
2017-12-12T22:41:27.509Z,2.93
2017-12-12T22:43:56.733Z,3.00
2017-12-12T22:46:26.003Z,2.93
2017-12-12T22:48:55.235Z,3.50
2017-12-12T22:51:24.572Z,3.20
2017-12-12T22:53:54.661Z,3.03
2017-12-12T22:56:23.908Z,3.60
2017-12-12T22:58:53.282Z,3.00
2017-12-12T23:01:22.548Z,3.80
2017-12-12T23:03:51.797Z,3.27
2017-12-12T23:06:21.195Z,3.30
2017-12-12T23:08:51.214Z,2.87
2017-12-12T23:11:20.459Z,3.70
2017-12-12T23:13:49.706Z,3.17
2017-12-12T23:16:19.819Z,3.57
2017-12-12T23:18:49.818Z,2.73
2017-12-12T23:21:19.252Z,3.30
2017-12-12T23:23:49.243Z,2.93
2017-12-12T23:26:18.524Z,3.63
2017-12-12T23:28:47.750Z,4.13
2017-12-12T23:31:17.018Z,3.27
2017-12-12T23:33:46.272Z,3.73
2017-12-12T23:36:15.511Z,3.70
2017-12-12T23:38:44.775Z,3.70
2017-12-12T23:41:14.774Z,3.07
2017-12-12T23:43:44.021Z,3.83
2017-12-12T23:46:13.266Z,4.07
2017-12-12T23:48:42.522Z,3.77
2017-12-12T23:51:11.750Z,4.07
2017-12-12T23:53:41.015Z,4.30
2017-12-12T23:56:10.246Z,3.30
2017-12-12T23:58:39.486Z,4.30
